Time;durP1;ratioP1;P1;durP2;ratioP2;P2;SDS_P1;SDS_P2;PMS_P1;PMS_P2;Temp;Humidity;BMP_temperature;BMP_pressure;BME280_temperature;BME280_humidity;BME280_pressure;Samples;Min_cycle;Max_cycle;Signal;HPM_P1;HPM_P2
2022/05/28 00:01:42;;;;;;;12.30;2.30;;;10.90;99.90;;;;;;4950208;28;20125;-84
2022/05/28 00:04:08;;;;;;;9.75;1.90;;;11.10;99.90;;;;;;4967683;28;20043;-86
2022/05/28 00:06:35;;;;;;;11.60;2.50;;;11.00;99.90;;;;;;4984338;28;20069;-85
2022/05/28 00:09:05;;;;;;;11.75;2.30;;;11.00;99.90;;;;;;4967288;28;20043;-85
2022/05/28 00:11:34;;;;;;;12.77;2.70;;;10.90;99.90;;;;;;4974862;28;20065;-85
2022/05/28 00:14:05;;;;;;;8.98;2.30;;;10.90;99.90;;;;;;4973071;28;20422;-85
2022/05/28 00:16:33;;;;;;;11.15;2.30;;;10.90;99.90;;;;;;4976174;28;20078;-84
2022/05/28 00:19:00;;;;;;;10.98;2.15;;;10.80;99.90;;;;;;4970445;28;20508;-84
2022/05/28 00:21:31;;;;;;;9.43;2.35;;;10.80;99.90;;;;;;4951615;28;20171;-84
2022/05/28 00:23:58;;;;;;;15.07;2.47;;;10.80;99.90;;;;;;4950392;28;20126;-83
2022/05/28 00:26:27;;;;;;;10.02;2.13;;;;;;;;;;4947228;28;20042;-85
2022/05/28 00:28:53;;;;;;;13.73;2.80;;;10.70;99.90;;;;;;4933097;28;20043;-85
2022/05/28 00:31:19;;;;;;;9.45;1.98;;;;;;;;;;4940553;28;20070;-83
2022/05/28 00:33:46;;;;;;;11.05;2.20;;;10.60;99.90;;;;;;4970560;28;20037;-86
2022/05/28 00:36:14;;;;;;;11.10;2.22;;;10.60;99.90;;;;;;4968757;28;20401;-86
2022/05/28 00:38:44;;;;;;;8.82;1.95;;;10.50;99.90;;;;;;4988131;28;20061;-84
2022/05/28 00:41:11;;;;;;;10.55;2.33;;;10.60;99.90;;;;;;4948328;28;20062;-84
2022/05/28 00:43:39;;;;;;;14.45;2.40;;;10.50;99.90;;;;;;4964321;28;20065;-85
2022/05/28 00:46:14;;;;;;;10.35;2.05;;;10.50;99.90;;;;;;4950438;28;20061;-86
2022/05/28 00:48:46;;;;;;;8.05;1.77;;;11.20;99.90;;;;;;4969208;28;20141;-86
2022/05/28 00:51:28;;;;;;;9.10;1.97;;;10.50;99.90;;;;;;4945081;28;20046;-85
2022/05/28 00:54:05;;;;;;;11.38;2.10;;;10.60;99.90;;;;;;4947633;28;20289;-84
2022/05/28 00:56:31;;;;;;;8.55;1.95;;;10.50;99.90;;;;;;4965971;28;20062;-87
2022/05/28 00:58:58;;;;;;;13.43;2.17;;;10.50;99.90;;;;;;4952247;28;20038;-85
2022/05/28 01:01:29;;;;;;;10.05;2.10;;;10.70;99.90;;;;;;4983495;28;20038;-86
2022/05/28 01:04:35;;;;;;;14.20;2.30;;;10.50;99.90;;;;;;4968790;28;20034;-87
2022/05/28 01:07:16;;;;;;;12.20;2.08;;;;;;;;;;4967166;28;20069;-84
2022/05/28 01:09:59;;;;;;;11.25;2.58;;;10.50;99.90;;;;;;4990936;28;20077;-88
2022/05/28 01:12:47;;;;;;;13.53;2.50;;;10.50;99.90;;;;;;4961628;28;20046;-85
2022/05/28 01:15:32;;;;;;;11.38;2.45;;;10.40;99.90;;;;;;4969519;28;20849;-84
2022/05/28 01:18:18;;;;;;;11.02;2.05;;;10.40;99.90;;;;;;4980661;28;20499;-85
2022/05/28 01:20:52;;;;;;;9.73;1.95;;;10.40;99.90;;;;;;4982966;28;20077;-85
2022/05/28 01:23:51;;;;;;;10.73;1.98;;;10.40;99.90;;;;;;4986490;28;20057;-84
2022/05/28 01:26:52;;;;;;;11.95;2.20;;;10.50;99.90;;;;;;4969407;28;20081;-84
2022/05/28 01:29:19;;;;;;;9.85;1.90;;;10.40;99.90;;;;;;4956621;28;20279;-84
2022/05/28 01:31:47;;;;;;;13.75;2.33;;;10.40;99.90;;;;;;4964445;28;20294;-86
2022/05/28 01:34:15;;;;;;;13.15;2.55;;;10.50;99.90;;;;;;5011476;28;20105;-86
2022/05/28 01:36:46;;;;;;;12.48;2.30;;;10.50;99.90;;;;;;4992129;28;20030;-84
2022/05/28 01:39:13;;;;;;;11.68;2.47;;;10.50;99.90;;;;;;5006878;28;20050;-84
2022/05/28 01:41:40;;;;;;;13.65;2.80;;;10.40;99.90;;;;;;5005479;28;20042;-85
2022/05/28 01:44:12;;;;;;;12.95;2.22;;;11.20;99.90;;;;;;4986870;28;20073;-84
2022/05/28 01:46:39;;;;;;;15.80;2.30;;;10.50;99.90;;;;;;4991124;28;20439;-85
2022/05/28 01:49:25;;;;;;;11.82;2.20;;;10.50;99.90;;;;;;4986515;28;20065;-87
2022/05/28 01:51:57;;;;;;;13.38;2.28;;;10.40;99.90;;;;;;4967080;28;20046;-85
2022/05/28 01:54:43;;;;;;;11.82;2.25;;;10.40;99.90;;;;;;4989627;28;20054;-85
2022/05/28 01:57:10;;;;;;;14.85;2.80;;;10.40;99.90;;;;;;5004797;28;20042;-86
2022/05/28 01:59:40;;;;;;;13.40;2.60;;;10.40;99.90;;;;;;4981905;28;20081;-86
2022/05/28 02:02:11;;;;;;;13.43;2.78;;;10.40;99.90;;;;;;4972315;28;20046;-86
2022/05/28 02:04:39;;;;;;;10.18;2.63;;;10.50;99.90;;;;;;4996828;28;20580;-84
2022/05/28 02:07:08;;;;;;;12.70;2.38;;;10.50;99.90;;;;;;4978010;28;20535;-86
2022/05/28 02:09:46;;;;;;;12.40;2.25;;;10.40;99.90;;;;;;4973350;28;20076;-86
2022/05/28 02:12:29;;;;;;;12.73;1.90;;;10.50;99.90;;;;;;4998986;28;20066;-83
2022/05/28 02:15:38;;;;;;;15.88;2.75;;;10.50;99.90;;;;;;5005658;28;20113;-86
2022/05/28 02:18:18;;;;;;;11.77;2.53;;;10.40;99.90;;;;;;4985867;28;20038;-85
2022/05/28 02:21:06;;;;;;;14.43;2.47;;;11.70;99.90;;;;;;4978381;28;20133;-85
2022/05/28 02:23:41;;;;;;;16.15;2.72;;;10.40;99.90;;;;;;4986800;28;20046;-84
2022/05/28 02:26:12;;;;;;;10.93;2.50;;;10.40;99.90;;;;;;4964295;28;20046;-83
2022/05/28 02:28:43;;;;;;;11.73;2.63;;;10.30;99.90;;;;;;4984489;28;20078;-84
2022/05/28 02:31:27;;;;;;;19.77;2.60;;;10.30;99.90;;;;;;4995178;28;20052;-85
2022/05/28 02:33:57;;;;;;;16.33;3.70;;;10.30;99.90;;;;;;4992966;28;20049;-85
2022/05/28 02:36:27;;;;;;;11.68;2.10;;;10.30;99.90;;;;;;4955512;28;20077;-84
2022/05/28 02:38:57;;;;;;;13.20;2.42;;;10.30;99.90;;;;;;4995813;28;20114;-87
2022/05/28 02:41:28;;;;;;;12.00;2.90;;;10.30;99.90;;;;;;4980576;28;20401;-86
2022/05/28 02:43:54;;;;;;;12.35;2.50;;;10.30;99.90;;;;;;4971097;28;20195;-85
2022/05/28 02:46:20;;;;;;;14.13;2.78;;;10.30;99.90;;;;;;4971597;28;20043;-85
2022/05/28 02:48:49;;;;;;;13.23;2.92;;;10.20;99.90;;;;;;4985124;28;20046;-85
2022/05/28 02:51:21;;;;;;;12.70;2.47;;;10.20;99.90;;;;;;4981906;28;20079;-84
2022/05/28 02:53:58;;;;;;;15.10;2.53;;;10.40;99.90;;;;;;4984353;28;20112;-84
2022/05/28 02:56:29;;;;;;;15.10;2.70;;;10.80;99.90;;;;;;4984371;28;20054;-84
2022/05/28 02:58:55;;;;;;;13.07;3.03;;;10.40;99.90;;;;;;4967656;28;20505;-84
2022/05/28 03:01:37;;;;;;;14.27;2.70;;;10.30;99.90;;;;;;4966236;28;20065;-84
2022/05/28 03:04:06;;;;;;;13.40;2.60;;;8.90;99.90;;;;;;4967189;28;20399;-86
2022/05/28 03:06:32;;;;;;;16.20;2.70;;;10.30;99.90;;;;;;4969643;28;20059;-84
2022/05/28 03:08:58;;;;;;;12.75;2.67;;;10.20;99.90;;;;;;4965818;28;20386;-84
2022/05/28 03:11:29;;;;;;;11.93;3.03;;;11.10;99.90;;;;;;4978698;28;20110;-86
2022/05/28 03:13:56;;;;;;;14.20;3.13;;;;;;;;;;4967441;28;20074;-85
2022/05/28 03:16:21;;;;;;;14.80;2.85;;;10.20;99.90;;;;;;4983817;28;20094;-84
2022/05/28 03:18:50;;;;;;;15.43;3.03;;;10.20;99.90;;;;;;4982709;28;20697;-86
2022/05/28 03:21:15;;;;;;;12.60;2.75;;;10.10;99.90;;;;;;4967317;28;20485;-84
2022/05/28 03:23:50;;;;;;;12.32;3.13;;;10.10;99.90;;;;;;4987762;28;20128;-85
2022/05/28 03:26:24;;;;;;;16.25;2.67;;;10.00;99.90;;;;;;4985451;28;20129;-86
2022/05/28 03:28:52;;;;;;;20.48;3.38;;;8.00;99.90;;;;;;4965064;28;20089;-85
2022/05/28 03:31:19;;;;;;;12.38;2.90;;;10.10;99.90;;;;;;4985106;28;20050;-86
2022/05/28 03:33:45;;;;;;;14.40;3.20;;;10.10;99.90;;;;;;4981125;28;20485;-84
2022/05/28 03:36:21;;;;;;;16.58;3.25;;;;;;;;;;4985131;28;20038;-86
2022/05/28 03:38:50;;;;;;;14.32;4.18;;;10.10;99.90;;;;;;4961388;28;20048;-85
2022/05/28 03:41:31;;;;;;;;;;;;;;;;;;;;;
2022/05/28 03:44:02;;;;;;;13.43;2.80;;;10.20;99.90;;;;;;4976952;28;20118;-85
2022/05/28 03:46:31;;;;;;;14.10;2.63;;;10.00;99.90;;;;;;4982209;28;20104;-85
2022/05/28 03:49:17;;;;;;;12.43;2.75;;;10.20;99.90;;;;;;4980317;28;20046;-84
2022/05/28 03:51:43;;;;;;;11.98;2.78;;;10.20;99.90;;;;;;4988854;28;20128;-85
2022/05/28 03:54:21;;;;;;;15.10;2.88;;;;;;;;;;4980281;28;20042;-85
2022/05/28 03:56:53;;;;;;;13.65;2.80;;;10.20;99.90;;;;;;4947910;28;20505;-86
2022/05/28 03:59:29;;;;;;;12.75;2.92;;;;;;;;;;4966856;28;20091;-86
2022/05/28 04:01:56;;;;;;;15.45;2.88;;;;;;;;;;4982363;28;20461;-85
2022/05/28 04:04:22;;;;;;;17.30;3.03;;;10.20;99.90;;;;;;4976779;28;20042;-84
2022/05/28 04:06:51;;;;;;;15.00;2.95;;;10.30;99.90;;;;;;4986191;28;20054;-83
2022/05/28 04:09:17;;;;;;;13.48;2.78;;;10.30;99.90;;;;;;5001216;28;20053;-85
2022/05/28 04:11:44;;;;;;;13.82;2.92;;;10.30;99.90;;;;;;4960976;28;20484;-85
2022/05/28 04:14:12;;;;;;;10.75;2.72;;;10.30;99.90;;;;;;4980038;28;20050;-85
2022/05/28 04:16:38;;;;;;;13.13;2.63;;;10.40;99.90;;;;;;4999848;28;20316;-84
2022/05/28 04:19:14;;;;;;;14.52;2.88;;;10.50;99.90;;;;;;4990194;28;20389;-85
2022/05/28 04:21:42;;;;;;;12.30;2.80;;;10.50;99.90;;;;;;4993335;28;20049;-85
2022/05/28 04:24:11;;;;;;;14.77;2.55;;;10.50;99.90;;;;;;4972475;28;20042;-86
2022/05/28 04:26:40;;;;;;;13.68;2.83;;;10.60;99.90;;;;;;4982726;28;20497;-85
2022/05/28 04:29:09;;;;;;;14.90;3.00;;;10.60;99.90;;;;;;4971683;28;20034;-85
2022/05/28 04:31:35;;;;;;;12.00;2.50;;;10.20;99.90;;;;;;4966597;28;20252;-86
2022/05/28 04:34:02;;;;;;;14.05;2.83;;;10.60;99.90;;;;;;4965849;28;20400;-85
2022/05/28 04:36:28;;;;;;;13.02;2.70;;;10.70;99.90;;;;;;4984220;28;20052;-85
2022/05/28 04:38:53;;;;;;;17.10;3.15;;;10.70;99.90;;;;;;4979826;28;20126;-86
2022/05/28 04:41:19;;;;;;;14.32;2.75;;;10.70;99.90;;;;;;4982007;28;20460;-85
2022/05/28 04:43:46;;;;;;;15.13;2.90;;;;;;;;;;4957272;28;20624;-86
2022/05/28 04:46:12;;;;;;;13.95;3.45;;;10.70;99.90;;;;;;4972022;28;20064;-84
2022/05/28 04:48:38;;;;;;;14.57;3.15;;;10.70;99.90;;;;;;4964795;28;20050;-84
2022/05/28 04:51:05;;;;;;;15.98;3.55;;;10.90;99.90;;;;;;4984980;28;20073;-85
2022/05/28 04:53:37;;;;;;;14.30;3.10;;;10.90;99.90;;;;;;4971083;28;20039;-87
2022/05/28 04:56:03;;;;;;;16.33;3.38;;;11.10;99.90;;;;;;4933551;28;20430;-86
2022/05/28 04:58:28;;;;;;;16.80;3.25;;;11.60;99.90;;;;;;4978518;28;20034;-83
2022/05/28 05:00:54;;;;;;;15.93;3.45;;;11.20;99.90;;;;;;5000149;28;20044;-85
2022/05/28 05:03:30;;;;;;;13.18;3.00;;;11.10;99.90;;;;;;4978596;28;20046;-87
2022/05/28 05:06:03;;;;;;;15.85;3.20;;;;;;;;;;4953232;28;20055;-85
2022/05/28 05:08:32;;;;;;;;;;;11.00;99.90;;;;;;4964596;28;20055;-87
2022/05/28 05:10:58;;;;;;;15.23;2.60;;;;;;;;;;4950614;28;20448;-85
2022/05/28 05:13:24;;;;;;;15.40;3.00;;;11.00;99.90;;;;;;4980668;28;20046;-86
2022/05/28 05:15:53;;;;;;;14.75;3.13;;;10.90;99.90;;;;;;4984365;28;20416;-84
2022/05/28 05:18:24;;;;;;;15.57;3.17;;;11.20;99.90;;;;;;4963788;28;20038;-86
2022/05/28 05:20:50;;;;;;;18.00;3.45;;;11.40;99.90;;;;;;4950324;28;20125;-84
2022/05/28 05:23:22;;;;;;;18.45;3.53;;;11.30;99.90;;;;;;4978536;28;20475;-85
2022/05/28 05:25:48;;;;;;;14.57;2.97;;;;;;;;;;4958151;28;20057;-86
2022/05/28 05:28:14;;;;;;;15.13;3.10;;;11.50;99.90;;;;;;4976225;28;20043;-85
2022/05/28 05:30:43;;;;;;;12.77;2.83;;;;;;;;;;4976460;28;20073;-85
2022/05/28 05:33:09;;;;;;;12.90;2.75;;;11.60;99.90;;;;;;4965018;28;20244;-85
2022/05/28 05:35:35;;;;;;;20.25;3.45;;;11.60;99.90;;;;;;4979948;28;20114;-84
2022/05/28 05:38:12;;;;;;;17.02;3.30;;;11.70;99.90;;;;;;4974309;28;20101;-86
2022/05/28 05:40:38;;;;;;;13.80;3.13;;;11.10;99.90;;;;;;4968981;28;20045;-87
2022/05/28 05:43:11;;;;;;;12.80;2.60;;;11.50;99.90;;;;;;4963351;28;20096;-85
2022/05/28 05:45:40;;;;;;;17.40;3.72;;;11.20;99.90;;;;;;4950405;28;20663;-86
2022/05/28 05:48:06;;;;;;;13.95;3.20;;;11.60;99.90;;;;;;4985790;28;20409;-86
2022/05/28 05:50:34;;;;;;;13.60;3.10;;;11.60;99.90;;;;;;4976368;28;20046;-84
2022/05/28 05:53:00;;;;;;;15.45;3.65;;;11.70;99.90;;;;;;4981623;28;20061;-86
2022/05/28 05:55:32;;;;;;;12.60;2.78;;;11.80;99.90;;;;;;4985153;28;20401;-84
2022/05/28 05:57:58;;;;;;;16.25;3.47;;;;;;;;;;4984762;28;20093;-86
2022/05/28 06:00:24;;;;;;;16.63;3.40;;;;;;;;;;4965713;28;20042;-86
2022/05/28 06:02:53;;;;;;;13.95;3.10;;;11.80;99.90;;;;;;4968182;28;20519;-85
2022/05/28 06:05:19;;;;;;;15.32;3.83;;;12.40;99.90;;;;;;4983960;28;20090;-87
2022/05/28 06:07:51;;;;;;;17.15;3.75;;;11.80;99.90;;;;;;5006945;28;20069;-84
2022/05/28 06:10:17;;;;;;;12.85;3.20;;;;;;;;;;4985699;28;20050;-86
2022/05/28 06:12:43;;;;;;;14.80;3.05;;;12.00;99.90;;;;;;4985501;28;20129;-85
2022/05/28 06:15:12;;;;;;;15.00;3.45;;;11.90;99.90;;;;;;4985753;28;20054;-85
2022/05/28 06:17:42;;;;;;;15.63;3.78;;;12.10;99.90;;;;;;4979663;28;20053;-84
2022/05/28 06:20:12;;;;;;;13.05;3.00;;;12.10;99.90;;;;;;4979483;28;20038;-84
2022/05/28 06:22:40;;;;;;;16.42;3.60;;;12.00;99.90;;;;;;5001591;28;20129;-86
2022/05/28 06:25:06;;;;;;;13.98;3.03;;;;;;;;;;4985477;28;20132;-86
2022/05/28 06:27:33;;;;;;;19.15;3.90;;;12.30;99.90;;;;;;4970611;28;20041;-86
2022/05/28 06:29:59;;;;;;;16.95;3.03;;;12.30;99.90;;;;;;4970644;28;20070;-85
2022/05/28 06:32:25;;;;;;;15.27;2.90;;;;;;;;;;4986926;28;20104;-84
2022/05/28 06:34:51;;;;;;;10.63;3.25;;;12.10;99.90;;;;;;4983936;28;20048;-87
2022/05/28 06:37:19;;;;;;;12.10;2.50;;;11.90;99.90;;;;;;4965866;28;20046;-84
2022/05/28 06:39:48;;;;;;;13.27;2.70;;;11.90;99.90;;;;;;4969211;28;20037;-83
2022/05/28 06:42:19;;;;;;;12.48;2.35;;;11.90;99.90;;;;;;4968908;28;20046;-84
2022/05/28 06:44:55;;;;;;;10.98;2.33;;;12.20;99.90;;;;;;4985868;28;20056;-84
2022/05/28 06:47:22;;;;;;;13.52;2.90;;;;;;;;;;4973627;28;20046;-84
2022/05/28 06:52:42;;;;;;;13.07;2.63;;;12.70;99.90;;;;;;4978519;28;20681;-85
2022/05/28 06:55:11;;;;;;;15.13;3.30;;;13.00;99.90;;;;;;4971027;28;20038;-84
2022/05/28 06:57:37;;;;;;;14.27;2.78;;;13.10;99.90;;;;;;4967381;28;20069;-85
2022/05/28 07:00:09;;;;;;;13.88;3.47;;;13.20;99.90;;;;;;4977265;28;20096;-85
2022/05/28 07:02:38;;;;;;;17.05;2.95;;;13.20;99.90;;;;;;4989206;28;20045;-85
2022/05/28 07:05:04;;;;;;;14.50;2.95;;;13.00;99.90;;;;;;4989235;28;20500;-84
2022/05/28 07:07:33;;;;;;;14.70;3.50;;;12.90;99.90;;;;;;4982872;28;20086;-84
2022/05/28 07:10:02;;;;;;;12.88;3.20;;;12.90;99.90;;;;;;4987333;28;20077;-85
2022/05/28 07:12:40;;;;;;;14.02;2.83;;;12.90;99.90;;;;;;4980705;28;20105;-86
2022/05/28 07:15:13;;;;;;;12.30;2.80;;;12.80;99.90;;;;;;4970314;28;20042;-85
2022/05/28 07:17:40;;;;;;;15.13;2.90;;;13.10;99.90;;;;;;4965473;28;20397;-84
2022/05/28 07:20:14;;;;;;;13.10;2.47;;;13.00;99.90;;;;;;4971113;28;20057;-85
2022/05/28 07:22:40;;;;;;;16.13;3.45;;;13.00;99.90;;;;;;4969826;28;20061;-84
2022/05/28 07:25:15;;;;;;;14.65;2.63;;;13.10;99.90;;;;;;4986147;28;20061;-83
2022/05/28 07:27:46;;;;;;;16.00;3.50;;;13.20;99.90;;;;;;4984921;28;20054;-85
2022/05/28 07:30:16;;;;;;;14.95;2.80;;;13.10;99.90;;;;;;4973982;28;20073;-87
2022/05/28 07:32:44;;;;;;;16.33;2.83;;;13.00;99.90;;;;;;4986842;28;20497;-85
2022/05/28 07:35:13;;;;;;;12.52;2.67;;;;;;;;;;4968495;28;20049;-84
2022/05/28 07:37:42;;;;;;;13.35;2.75;;;13.20;99.90;;;;;;4967302;28;20038;-87
2022/05/28 07:40:17;;;;;;;16.88;3.55;;;13.00;99.90;;;;;;4986805;28;20046;-85
2022/05/28 07:42:43;;;;;;;15.83;3.47;;;12.80;99.90;;;;;;4987159;28;20461;-83
2022/05/28 07:45:18;;;;;;;17.17;3.22;;;12.60;99.90;;;;;;4969735;28;20796;-85
2022/05/28 07:47:47;;;;;;;11.90;2.55;;;12.50;99.90;;;;;;4973208;28;20085;-85
2022/05/28 07:50:16;;;;;;;13.73;3.20;;;12.50;99.90;;;;;;4961859;28;20085;-83
2022/05/28 07:52:41;;;;;;;12.15;2.88;;;12.30;99.90;;;;;;4965462;28;20058;-84
2022/05/28 07:55:17;;;;;;;12.07;2.97;;;12.90;99.90;;;;;;4970291;28;20046;-85
2022/05/28 07:57:46;;;;;;;16.05;2.67;;;13.10;99.90;;;;;;4983358;28;20579;-84
2022/05/28 08:00:12;;;;;;;14.60;3.13;;;13.90;99.90;;;;;;4984208;28;20066;-85
2022/05/28 08:02:44;;;;;;;16.27;3.40;;;12.80;99.90;;;;;;4970603;28;20046;-85
2022/05/28 08:05:20;;;;;;;;;;;;;;;;;;;;;
2022/05/28 08:07:49;;;;;;;15.63;2.95;;;13.10;99.90;;;;;;4984763;28;20146;-85
2022/05/28 08:10:25;;;;;;;12.70;2.80;;;13.10;99.90;;;;;;4969314;28;20056;-86
2022/05/28 08:12:58;;;;;;;14.00;3.33;;;13.20;99.90;;;;;;4972020;28;20097;-87
2022/05/28 08:15:37;;;;;;;13.80;3.00;;;13.20;99.90;;;;;;4970579;28;20497;-84
2022/05/28 08:18:09;;;;;;;17.05;3.17;;;13.10;99.90;;;;;;4980588;28;20039;-84
2022/05/28 08:23:25;;;;;;;15.65;3.53;;;13.10;99.90;;;;;;4974158;28;20046;-84
2022/05/28 08:25:54;;;;;;;13.85;2.70;;;11.20;99.90;;;;;;4988978;28;20050;-84
2022/05/28 08:28:24;;;;;;;13.52;3.10;;;13.20;99.90;;;;;;4982482;28;20520;-87
2022/05/28 08:30:49;;;;;;;12.80;2.60;;;13.40;99.90;;;;;;4970131;28;20053;-85
2022/05/28 08:33:25;;;;;;;13.32;2.78;;;13.50;99.90;;;;;;4970397;28;20486;-86
2022/05/28 08:35:55;;;;;;;13.48;3.08;;;13.50;99.90;;;;;;4971159;28;20074;-85
2022/05/28 08:38:28;;;;;;;11.93;2.80;;;13.60;99.90;;;;;;4948825;28;20124;-83
2022/05/28 08:41:04;;;;;;;12.73;3.22;;;13.50;99.90;;;;;;4986508;28;20441;-86
2022/05/28 08:44:02;;;;;;;12.23;2.70;;;13.50;99.90;;;;;;4967202;28;20046;-85
2022/05/28 08:46:33;;;;;;;16.13;2.75;;;13.40;99.90;;;;;;4966492;28;20100;-85
2022/05/28 08:49:05;;;;;;;13.63;2.83;;;13.40;99.90;;;;;;5000261;28;20041;-84
2022/05/28 08:52:07;;;;;;;12.60;2.90;;;13.60;99.90;;;;;;4966365;28;20157;-86
2022/05/28 08:55:09;;;;;;;13.73;2.72;;;13.80;99.90;;;;;;5008246;28;20061;-84
2022/05/28 08:58:06;;;;;;;11.45;2.60;;;13.80;99.90;;;;;;4974308;28;20085;-85
2022/05/28 09:00:55;;;;;;;14.20;2.60;;;13.90;99.90;;;;;;4978841;28;20505;-84
2022/05/28 09:03:28;;;;;;;11.50;2.67;;;14.10;99.90;;;;;;4986780;28;20042;-85
2022/05/28 09:06:19;;;;;;;13.20;3.22;;;13.90;99.90;;;;;;4985436;28;20548;-85
2022/05/28 09:08:57;;;;;;;14.32;2.60;;;13.80;99.90;;;;;;4994469;28;20723;-87
2022/05/28 09:11:54;;;;;;;17.15;3.22;;;12.30;99.90;;;;;;4979490;28;20147;-86
2022/05/28 09:14:27;;;;;;;14.38;2.63;;;13.50;99.90;;;;;;4975504;28;20069;-85
2022/05/28 09:17:04;;;;;;;14.13;2.70;;;13.30;99.90;;;;;;4971016;28;20523;-85
2022/05/28 09:19:38;;;;;;;12.73;2.90;;;13.10;99.90;;;;;;4959665;28;20057;-85
2022/05/28 09:22:08;;;;;;;14.95;2.90;;;13.10;99.90;;;;;;4961043;28;20053;-86
2022/05/28 09:24:34;;;;;;;14.00;3.30;;;15.00;99.90;;;;;;4960828;28;20050;-84
2022/05/28 09:27:47;;;;;;;14.90;3.00;;;14.60;99.90;;;;;;4979470;28;20045;-85
2022/05/28 09:30:33;;;;;;;14.05;3.05;;;13.10;99.90;;;;;;4972999;28;20357;-84
2022/05/28 09:33:13;;;;;;;15.15;2.90;;;13.10;99.90;;;;;;4973527;28;20547;-85
2022/05/28 09:35:56;;;;;;;16.15;3.55;;;13.20;99.90;;;;;;4978066;28;20041;-85
2022/05/28 09:38:39;;;;;;;16.73;3.25;;;13.50;99.90;;;;;;4950386;28;20451;-85
2022/05/28 09:41:23;;;;;;;12.25;3.17;;;12.40;99.90;;;;;;4984157;28;20200;-85
2022/05/28 09:44:39;;;;;;;10.65;2.70;;;13.50;99.90;;;;;;4972600;28;20088;-86
2022/05/28 09:47:22;;;;;;;13.60;3.05;;;13.30;99.90;;;;;;4965628;28;20573;-84
2022/05/28 09:49:50;;;;;;;13.13;3.30;;;13.30;99.90;;;;;;4964553;28;20042;-85
2022/05/28 09:52:34;;;;;;;11.73;2.42;;;13.60;99.90;;;;;;5004088;28;20421;-86
2022/05/28 09:55:32;;;;;;;12.82;2.30;;;13.90;99.90;;;;;;4966208;28;20037;-85
2022/05/28 09:58:19;;;;;;;14.13;2.75;;;14.30;99.90;;;;;;4952617;28;20077;-85
2022/05/28 10:00:48;;;;;;;10.75;2.28;;;14.40;99.90;;;;;;4966047;28;20147;-85
2022/05/28 10:06:16;;;;;;;9.68;2.33;;;14.60;99.90;;;;;;4982342;28;20058;-85
2022/05/28 10:08:42;;;;;;;12.73;2.25;;;15.10;99.90;;;;;;4981865;28;20108;-88
2022/05/28 10:11:19;;;;;;;12.00;2.38;;;15.10;99.90;;;;;;4982666;28;20607;-84
2022/05/28 10:13:54;;;;;;;13.90;2.67;;;15.00;99.90;;;;;;4980124;28;20052;-85
2022/05/28 10:16:23;;;;;;;12.23;2.58;;;14.70;99.90;;;;;;4985586;28;20053;-85
2022/05/28 10:18:58;;;;;;;12.82;2.60;;;14.40;99.90;;;;;;4980609;28;20108;-84
2022/05/28 10:21:37;;;;;;;9.57;2.30;;;14.20;99.90;;;;;;4984938;28;20046;-83
2022/05/28 10:24:10;;;;;;;12.57;2.47;;;14.20;99.90;;;;;;4987855;28;20061;-85
2022/05/28 10:26:44;;;;;;;11.57;2.35;;;14.20;99.90;;;;;;4984860;28;20072;-86
2022/05/28 10:29:30;;;;;;;16.42;2.88;;;14.00;99.90;;;;;;4981736;28;20046;-86
2022/05/28 10:32:08;;;;;;;11.18;2.45;;;13.00;99.90;;;;;;4982788;28;20126;-84
2022/05/28 10:34:37;;;;;;;11.48;2.17;;;13.80;99.90;;;;;;4986742;28;20050;-84
2022/05/28 10:37:13;;;;;;;10.43;2.05;;;14.10;99.90;;;;;;4975028;28;21027;-85
2022/05/28 10:39:42;;;;;;;12.07;2.65;;;13.10;99.90;;;;;;4982818;28;20046;-85
2022/05/28 10:42:11;;;;;;;8.57;1.70;;;14.30;99.90;;;;;;4986648;28;20065;-85
2022/05/28 10:44:42;;;;;;;10.70;2.08;;;14.40;99.90;;;;;;4985681;28;20126;-84
2022/05/28 10:47:37;;;;;;;9.23;2.10;;;14.50;99.90;;;;;;4983301;28;20527;-86
2022/05/28 10:50:43;;;;;;;11.25;2.00;;;14.60;99.90;;;;;;4966148;28;20046;-85
2022/05/28 10:53:22;;;;;;;9.90;1.85;;;14.40;99.90;;;;;;4988182;28;20088;-84
2022/05/28 10:56:06;;;;;;;13.20;2.55;;;14.50;99.90;;;;;;4972315;28;20048;-84
2022/05/28 10:59:25;;;;;;;11.38;2.42;;;14.10;99.90;;;;;;4978784;28;20046;-84
2022/05/28 11:02:16;;;;;;;11.10;2.03;;;14.30;99.90;;;;;;4951332;28;20090;-85
2022/05/28 11:05:05;;;;;;;11.20;2.10;;;14.50;99.90;;;;;;4988685;28;20205;-83
2022/05/28 11:07:44;;;;;;;9.82;2.25;;;14.70;99.90;;;;;;4972916;28;20077;-85
2022/05/28 11:10:10;;;;;;;9.35;2.03;;;;;;;;;;4968846;28;20406;-84
2022/05/28 11:13:09;;;;;;;9.52;2.20;;;15.20;99.90;;;;;;4969370;28;20081;-84
2022/05/28 11:16:01;;;;;;;10.27;1.80;;;14.90;99.90;;;;;;4977761;28;20109;-86
2022/05/28 11:18:55;;;;;;;11.53;2.63;;;14.40;99.90;;;;;;4964621;28;20050;-83
2022/05/28 11:21:32;;;;;;;11.25;2.38;;;13.90;99.90;;;;;;5004011;28;20042;-86
2022/05/28 11:24:15;;;;;;;12.82;2.47;;;13.80;99.90;;;;;;4981966;28;20054;-85
2022/05/28 11:26:53;;;;;;;12.50;2.78;;;13.70;99.90;;;;;;4973952;28;20428;-88
2022/05/28 11:29:48;;;;;;;13.20;2.78;;;14.50;99.90;;;;;;4978788;28;20062;-85
2022/05/28 11:32:33;;;;;;;10.77;2.65;;;14.50;99.90;;;;;;4987923;28;20066;-86
2022/05/28 11:35:15;;;;;;;12.57;3.25;;;14.50;99.90;;;;;;4982697;28;20563;-85
2022/05/28 11:37:57;;;;;;;11.77;2.35;;;14.60;99.90;;;;;;4984501;28;20357;-87
2022/05/28 11:40:53;;;;;;;10.82;2.40;;;14.80;99.90;;;;;;4985823;28;20485;-85
2022/05/28 11:43:40;;;;;;;10.38;1.92;;;14.90;99.90;;;;;;4981945;28;20038;-85
2022/05/28 11:46:35;;;;;;;11.93;2.60;;;14.80;99.90;;;;;;4974145;28;20264;-84
2022/05/28 11:52:34;;;;;;;9.63;2.00;;;14.70;99.90;;;;;;5001113;28;20127;-86
2022/05/28 11:55:10;;;;;;;9.07;2.10;;;14.70;99.90;;;;;;4990327;28;20442;-86
2022/05/28 11:57:54;;;;;;;8.88;2.08;;;14.50;99.90;;;;;;4980329;28;20046;-84
2022/05/28 12:00:30;;;;;;;17.73;3.33;;;14.40;99.90;;;;;;4980949;28;20034;-88
2022/05/28 12:03:11;;;;;;;13.13;2.92;;;13.70;99.90;;;;;;4985264;28;20055;-85
2022/05/28 12:06:16;;;;;;;10.95;2.30;;;13.60;99.90;;;;;;4979643;28;20133;-85
2022/05/28 12:08:55;;;;;;;12.85;2.70;;;13.50;99.90;;;;;;5003443;28;20212;-84
2022/05/28 12:11:59;;;;;;;12.20;2.65;;;13.30;99.90;;;;;;4970795;28;20103;-86
2022/05/28 12:14:32;;;;;;;16.52;3.03;;;13.60;99.90;;;;;;4989083;28;20052;-84
2022/05/28 12:17:21;;;;;;;14.05;2.85;;;13.90;99.90;;;;;;4989256;28;20052;-85
2022/05/28 12:19:53;;;;;;;10.25;2.40;;;13.90;99.90;;;;;;4970580;28;20065;-86
2022/05/28 12:22:55;;;;;;;10.15;2.85;;;14.10;99.90;;;;;;4972947;28;20180;-85
2022/05/28 12:25:36;;;;;;;11.98;2.45;;;14.30;99.90;;;;;;4971157;28;20053;-86
2022/05/28 12:28:25;;;;;;;12.55;2.90;;;14.20;99.90;;;;;;4991057;28;20063;-85
2022/05/28 12:31:02;;;;;;;13.88;2.80;;;14.00;99.90;;;;;;4989567;28;20109;-85
2022/05/28 12:33:34;;;;;;;13.07;2.55;;;14.20;99.90;;;;;;4971035;28;20037;-84
2022/05/28 12:36:28;;;;;;;15.80;2.78;;;14.10;99.90;;;;;;4998339;28;20045;-84
2022/05/28 12:39:13;;;;;;;13.90;2.95;;;14.30;99.90;;;;;;5004829;28;20033;-86
2022/05/28 12:41:41;;;;;;;12.35;2.88;;;14.30;99.90;;;;;;4989035;28;20042;-84
2022/05/28 12:44:31;;;;;;;13.85;2.75;;;14.10;99.90;;;;;;4970431;28;20053;-85
2022/05/28 12:47:07;;;;;;;10.48;2.05;;;14.10;99.90;;;;;;4947464;28;20560;-87
2022/05/28 12:50:13;;;;;;;12.55;2.38;;;14.10;99.90;;;;;;4977781;28;20080;-83
2022/05/28 12:52:54;;;;;;;13.20;3.00;;;14.50;99.90;;;;;;4952574;28;20050;-85
2022/05/28 12:55:55;;;;;;;12.98;2.53;;;14.40;99.90;;;;;;4965046;28;20128;-85
2022/05/28 12:58:24;;;;;;;13.40;2.78;;;14.10;99.90;;;;;;4967559;28;20072;-85
2022/05/28 13:00:56;;;;;;;11.05;2.33;;;14.10;99.90;;;;;;4988042;28;20042;-86
2022/05/28 13:03:34;;;;;;;11.82;2.80;;;14.10;99.90;;;;;;4983516;28;20494;-86
2022/05/28 13:06:14;;;;;;;11.38;2.35;;;14.50;99.90;;;;;;4986252;28;20076;-84
2022/05/28 13:09:03;;;;;;;11.30;2.25;;;14.50;99.90;;;;;;4978330;28;20750;-85
2022/05/28 13:12:05;;;;;;;12.50;2.83;;;14.30;99.90;;;;;;4984332;28;20065;-85
2022/05/28 13:15:04;;;;;;;8.77;2.10;;;14.30;99.90;;;;;;4983641;28;20045;-86
2022/05/28 13:17:42;;;;;;;8.85;2.13;;;14.00;99.90;;;;;;4968133;28;20433;-85
2022/05/28 13:20:48;;;;;;;8.95;2.22;;;13.80;99.90;;;;;;4971881;28;20150;-85
2022/05/28 13:23:41;;;;;;;12.00;2.40;;;13.60;99.90;;;;;;4986405;28;20041;-86
2022/05/28 13:26:39;;;;;;;12.43;2.47;;;13.70;99.90;;;;;;4986185;28;20066;-87
2022/05/28 13:29:43;;;;;;;10.00;2.25;;;14.10;99.90;;;;;;4983306;28;20098;-86
2022/05/28 13:32:13;;;;;;;10.07;2.17;;;14.80;99.90;;;;;;4969053;28;20081;-85
2022/05/28 13:34:39;;;;;;;9.35;2.38;;;14.80;99.90;;;;;;4954776;28;20543;-83
2022/05/28 13:37:05;;;;;;;9.57;1.90;;;14.80;99.90;;;;;;4974646;28;20126;-85
2022/05/28 13:39:45;;;;;;;9.98;1.90;;;14.70;99.90;;;;;;4989716;28;20069;-85
2022/05/28 13:42:28;;;;;;;12.68;2.42;;;14.90;99.90;;;;;;4967869;28;20159;-84